createdAt,value
2018-12-23T00:00:11.252Z,2.70
2018-12-23T00:00:45.890Z,2.80
2018-12-23T00:01:20.539Z,2.73
2018-12-23T00:01:55.150Z,2.60
2018-12-23T00:02:29.744Z,2.90
2018-12-23T00:03:04.818Z,2.90
2018-12-23T00:03:39.443Z,2.73
2018-12-23T00:04:14.188Z,3.00
2018-12-23T00:04:48.941Z,2.43
2018-12-23T00:05:23.549Z,2.67
2018-12-23T00:05:58.230Z,2.53
2018-12-23T00:06:32.838Z,2.40
2018-12-23T00:07:07.457Z,2.30
2018-12-23T00:07:42.164Z,2.57
2018-12-23T00:08:16.787Z,2.80
2018-12-23T00:08:51.398Z,2.97
2018-12-23T00:09:26.035Z,2.47
2018-12-23T00:10:00.664Z,2.70
2018-12-23T00:10:35.277Z,2.40
2018-12-23T00:11:09.962Z,2.43
2018-12-23T00:11:44.614Z,2.17
2018-12-23T00:12:19.912Z,2.27
2018-12-23T00:12:54.574Z,3.23
2018-12-23T00:13:29.253Z,2.10
2018-12-23T00:14:03.845Z,2.60
2018-12-23T00:14:38.736Z,3.07
2018-12-23T00:15:13.432Z,2.73
2018-12-23T00:15:48.036Z,2.50
2018-12-23T00:16:22.735Z,3.80
2018-12-23T00:16:58.603Z,2.67
2018-12-23T00:17:33.614Z,3.20
2018-12-23T00:18:08.376Z,2.70
2018-12-23T00:18:43.147Z,3.00
2018-12-23T00:19:17.860Z,2.53
2018-12-23T00:19:52.508Z,2.63
2018-12-23T00:20:27.201Z,2.63
2018-12-23T00:21:01.829Z,3.37
2018-12-23T00:21:36.545Z,3.13
2018-12-23T00:22:11.142Z,2.87
2018-12-23T00:22:45.743Z,3.07
2018-12-23T00:23:20.346Z,3.13
2018-12-23T00:23:54.944Z,2.40
2018-12-23T00:24:29.589Z,2.63
2018-12-23T00:25:05.346Z,2.63
2018-12-23T00:25:40.054Z,3.20
2018-12-23T00:26:14.686Z,2.83
2018-12-23T00:26:49.312Z,2.40
2018-12-23T00:27:23.950Z,2.80
2018-12-23T00:27:58.625Z,2.30
2018-12-23T00:28:33.226Z,2.73
2018-12-23T00:29:08.121Z,2.97
2018-12-23T00:29:43.235Z,2.53
2018-12-23T00:30:18.210Z,2.93
2018-12-23T00:30:52.891Z,2.40
2018-12-23T00:31:27.544Z,2.70
2018-12-23T00:32:02.160Z,3.20
2018-12-23T00:32:36.910Z,2.67
2018-12-23T00:33:11.676Z,2.93
2018-12-23T00:33:46.270Z,2.60
2018-12-23T00:34:20.882Z,2.10
2018-12-23T00:34:55.643Z,2.77
2018-12-23T00:35:30.251Z,2.70
2018-12-23T00:36:05.754Z,2.47
2018-12-23T00:36:40.481Z,2.70
2018-12-23T00:37:15.073Z,2.83
2018-12-23T00:37:49.681Z,3.00
2018-12-23T00:38:24.329Z,2.70
2018-12-23T00:38:58.942Z,2.47
2018-12-23T00:39:33.581Z,2.10
2018-12-23T00:40:08.201Z,2.73
2018-12-23T00:40:42.903Z,2.50
2018-12-23T00:41:17.979Z,2.90
2018-12-23T00:41:52.651Z,3.53
2018-12-23T00:42:27.237Z,2.63
2018-12-23T00:43:01.855Z,2.83
2018-12-23T00:43:36.554Z,2.27
2018-12-23T00:44:11.375Z,2.50
2018-12-23T00:44:45.951Z,2.53
2018-12-23T00:45:20.539Z,3.00
2018-12-23T00:45:55.146Z,2.27
2018-12-23T00:46:29.861Z,2.97
2018-12-23T00:47:06.160Z,3.27
2018-12-23T00:47:43.813Z,2.63
2018-12-23T00:48:18.620Z,2.80
2018-12-23T00:48:53.222Z,2.47
2018-12-23T00:49:28.470Z,2.67
2018-12-23T00:50:03.511Z,2.43
2018-12-23T00:50:38.230Z,2.80
2018-12-23T00:51:13.046Z,2.70
2018-12-23T00:51:47.756Z,2.60
2018-12-23T00:52:22.372Z,2.53
2018-12-23T00:52:57.100Z,2.30
2018-12-23T00:53:31.676Z,2.97
2018-12-23T00:54:06.803Z,2.87
2018-12-23T00:54:41.435Z,2.60
2018-12-23T00:55:16.049Z,2.17
2018-12-23T00:55:50.631Z,2.40
2018-12-23T00:56:25.248Z,3.13
2018-12-23T00:57:00.025Z,3.07
2018-12-23T00:57:34.724Z,2.27
2018-12-23T00:58:09.397Z,2.33
2018-12-23T00:58:44.287Z,2.87
2018-12-23T00:59:18.946Z,2.33
2018-12-23T00:59:53.657Z,2.37
2018-12-23T01:00:28.292Z,2.50
2018-12-23T01:01:02.986Z,2.27
2018-12-23T01:01:37.635Z,2.60
2018-12-23T01:02:12.364Z,2.40
2018-12-23T01:02:47.037Z,2.83
2018-12-23T01:03:21.654Z,2.33
2018-12-23T01:03:56.265Z,3.13
2018-12-23T01:04:31.026Z,2.77
2018-12-23T01:05:07.434Z,3.07
2018-12-23T01:05:42.532Z,2.93
2018-12-23T01:06:17.791Z,2.57
2018-12-23T01:06:52.455Z,2.40
2018-12-23T01:07:27.400Z,2.90
2018-12-23T01:08:02.018Z,2.93
2018-12-23T01:08:36.681Z,2.33
2018-12-23T01:09:11.374Z,2.53
2018-12-23T01:09:46.116Z,2.63
2018-12-23T01:10:20.720Z,2.20
2018-12-23T01:10:55.332Z,2.30
2018-12-23T01:11:29.998Z,3.10
2018-12-23T01:12:05.105Z,3.17
2018-12-23T01:12:39.898Z,3.10
2018-12-23T01:13:14.517Z,2.70
2018-12-23T01:13:49.231Z,3.03
2018-12-23T01:14:23.818Z,2.90
2018-12-23T01:14:58.428Z,2.40
2018-12-23T01:15:33.073Z,2.93
2018-12-23T01:16:07.806Z,2.40
2018-12-23T01:16:42.490Z,3.17
2018-12-23T01:17:17.153Z,2.80
2018-12-23T01:17:51.750Z,2.60
2018-12-23T01:18:26.358Z,2.90
2018-12-23T01:19:00.945Z,2.97
2018-12-23T01:19:35.559Z,2.70
2018-12-23T01:20:10.221Z,2.63
2018-12-23T01:20:44.819Z,3.37
2018-12-23T01:21:19.951Z,3.07
2018-12-23T01:21:54.536Z,3.07
2018-12-23T01:22:29.200Z,2.87
2018-12-23T01:23:04.012Z,3.20
2018-12-23T01:23:38.713Z,2.87
2018-12-23T01:24:13.307Z,3.40
2018-12-23T01:24:47.899Z,2.70
2018-12-23T01:25:22.532Z,2.77
2018-12-23T01:25:57.114Z,2.83
2018-12-23T01:26:31.765Z,2.80
2018-12-23T01:27:06.433Z,2.70
2018-12-23T01:27:41.066Z,2.90
2018-12-23T01:28:15.712Z,3.20
2018-12-23T01:28:50.356Z,2.90
2018-12-23T01:29:25.010Z,2.73
2018-12-23T01:29:59.702Z,3.13
2018-12-23T01:30:34.450Z,2.67
2018-12-23T01:31:09.293Z,2.77
2018-12-23T01:31:44.049Z,2.77
2018-12-23T01:32:18.677Z,2.80
2018-12-23T01:32:53.354Z,2.80
2018-12-23T01:33:27.980Z,2.83
2018-12-23T01:34:02.587Z,2.67
2018-12-23T01:34:37.383Z,2.73
2018-12-23T01:35:12.301Z,2.67
2018-12-23T01:35:46.932Z,2.90
2018-12-23T01:36:21.544Z,2.90
2018-12-23T01:36:56.473Z,3.37
2018-12-23T01:37:31.089Z,3.20
2018-12-23T01:38:05.711Z,3.20
2018-12-23T01:38:40.425Z,3.23
2018-12-23T01:39:15.241Z,3.20
2018-12-23T01:39:49.855Z,3.00
2018-12-23T01:40:24.493Z,3.27
2018-12-23T01:40:59.134Z,3.37
2018-12-23T01:41:33.808Z,3.20
2018-12-23T01:42:08.746Z,2.93
2018-12-23T01:42:43.373Z,3.20
2018-12-23T01:43:17.977Z,3.53
2018-12-23T01:43:52.596Z,3.17
2018-12-23T01:44:27.230Z,2.63
2018-12-23T01:45:01.854Z,3.13
2018-12-23T01:45:36.502Z,2.63
2018-12-23T01:46:11.168Z,2.70
2018-12-23T01:46:46.234Z,2.97
2018-12-23T01:47:20.896Z,3.47
2018-12-23T01:47:55.536Z,3.07
2018-12-23T01:48:30.213Z,2.60
2018-12-23T01:49:05.255Z,3.40
2018-12-23T01:49:39.985Z,3.33
2018-12-23T01:50:14.582Z,3.77
2018-12-23T01:50:49.568Z,3.37
2018-12-23T01:51:24.152Z,3.90
2018-12-23T01:51:59.285Z,2.80
2018-12-23T01:52:33.964Z,3.30
2018-12-23T01:53:08.666Z,3.63
2018-12-23T01:53:43.390Z,2.57
2018-12-23T01:54:18.039Z,3.50
2018-12-23T01:54:52.642Z,3.30
2018-12-23T01:55:27.705Z,3.27
2018-12-23T01:56:02.614Z,3.83
2018-12-23T01:56:37.410Z,3.60
2018-12-23T01:57:12.080Z,3.10
2018-12-23T01:57:46.730Z,2.80
2018-12-23T01:58:21.405Z,3.00
2018-12-23T01:58:56.038Z,3.57
2018-12-23T01:59:30.668Z,3.47
2018-12-23T02:00:08.122Z,3.60
2018-12-23T02:00:42.752Z,3.20
2018-12-23T02:01:17.986Z,3.80
2018-12-23T02:01:52.789Z,4.13
2018-12-23T02:02:27.391Z,3.77
2018-12-23T02:03:02.035Z,4.03
2018-12-23T02:03:36.727Z,3.50
2018-12-23T02:04:11.376Z,3.70
2018-12-23T02:04:46.048Z,3.37
2018-12-23T02:05:21.119Z,3.33
2018-12-23T02:05:55.804Z,3.67
2018-12-23T02:06:30.407Z,2.87
2018-12-23T02:07:05.592Z,3.13
2018-12-23T02:07:40.240Z,4.10
2018-12-23T02:08:14.892Z,3.30
2018-12-23T02:08:49.548Z,3.90
2018-12-23T02:09:24.188Z,4.23
2018-12-23T02:09:58.823Z,3.47
2018-12-23T02:10:33.440Z,4.07
2018-12-23T02:11:08.186Z,3.80
2018-12-23T02:11:42.864Z,3.87
2018-12-23T02:12:17.487Z,3.53
2018-12-23T02:12:52.108Z,4.13
2018-12-23T02:13:26.700Z,3.60
2018-12-23T02:14:01.341Z,3.20
2018-12-23T02:14:35.925Z,3.43
2018-12-23T02:15:11.036Z,3.83
2018-12-23T02:15:45.669Z,3.60
2018-12-23T02:16:22.768Z,3.40
2018-12-23T02:16:57.364Z,3.80
2018-12-23T02:17:31.974Z,3.30
2018-12-23T02:18:06.637Z,3.93
2018-12-23T02:18:41.273Z,4.10
2018-12-23T02:19:15.928Z,3.53
2018-12-23T02:19:50.563Z,3.40
2018-12-23T02:20:25.199Z,3.37
2018-12-23T02:20:59.813Z,3.90
2018-12-23T02:21:34.441Z,3.30
2018-12-23T02:22:09.223Z,3.20
2018-12-23T02:22:44.399Z,3.60
2018-12-23T02:23:19.538Z,3.80
2018-12-23T02:23:54.457Z,3.47
2018-12-23T02:24:29.103Z,3.37
2018-12-23T02:25:04.325Z,3.40
2018-12-23T02:25:38.942Z,3.33
2018-12-23T02:26:13.527Z,3.80
2018-12-23T02:26:48.295Z,3.30
2018-12-23T02:27:23.085Z,3.67
2018-12-23T02:27:58.067Z,3.87
2018-12-23T02:28:32.757Z,3.50
2018-12-23T02:29:07.358Z,3.47
2018-12-23T02:29:42.155Z,3.70
2018-12-23T02:30:16.920Z,3.27
2018-12-23T02:30:52.230Z,3.87
2018-12-23T02:31:26.948Z,3.40
2018-12-23T02:32:01.975Z,3.70
2018-12-23T02:32:37.755Z,3.73
2018-12-23T02:33:12.368Z,3.23
2018-12-23T02:33:47.286Z,3.70
2018-12-23T02:34:21.970Z,3.80
2018-12-23T02:34:56.661Z,3.57
2018-12-23T02:35:31.402Z,3.50
2018-12-23T02:36:06.024Z,3.53
2018-12-23T02:36:40.716Z,3.60
2018-12-23T02:37:15.334Z,3.23
2018-12-23T02:37:49.965Z,3.90
2018-12-23T02:38:24.796Z,3.03
2018-12-23T02:38:59.598Z,3.20
2018-12-23T02:39:34.250Z,3.80
2018-12-23T02:40:08.912Z,3.50
2018-12-23T02:40:43.700Z,4.33
2018-12-23T02:41:18.395Z,3.40
2018-12-23T02:41:53.374Z,3.73
2018-12-23T02:42:28.660Z,3.30
2018-12-23T02:43:03.464Z,3.47
2018-12-23T02:43:38.072Z,3.90
2018-12-23T02:44:12.771Z,3.17
2018-12-23T02:44:47.422Z,4.17
2018-12-23T02:45:22.229Z,3.57
2018-12-23T02:45:56.960Z,3.80
2018-12-23T02:46:31.648Z,3.87
2018-12-23T02:47:06.451Z,4.50
2018-12-23T02:47:41.071Z,3.73
2018-12-23T02:48:15.788Z,3.37
2018-12-23T02:48:50.378Z,4.17
2018-12-23T02:49:25.481Z,4.20
2018-12-23T02:50:00.178Z,4.63
2018-12-23T02:50:34.837Z,4.57
2018-12-23T02:51:09.451Z,4.03
2018-12-23T02:51:44.051Z,3.80
2018-12-23T02:52:18.685Z,3.90
2018-12-23T02:52:53.739Z,4.00
2018-12-23T02:53:28.570Z,4.00
2018-12-23T02:54:03.299Z,4.10
2018-12-23T02:54:38.071Z,4.30
2018-12-23T02:55:13.241Z,3.77
2018-12-23T02:55:47.993Z,4.13
2018-12-23T02:56:23.970Z,4.20
2018-12-23T02:56:58.752Z,4.47
2018-12-23T02:57:33.588Z,4.47
2018-12-23T02:58:08.302Z,3.90
2018-12-23T02:58:42.933Z,3.73
2018-12-23T02:59:17.887Z,4.87
2018-12-23T02:59:52.790Z,3.60
2018-12-23T03:00:27.732Z,4.20
2018-12-23T03:01:03.038Z,3.53
2018-12-23T03:01:37.682Z,4.20
2018-12-23T03:02:12.774Z,4.27
2018-12-23T03:02:47.511Z,3.70
2018-12-23T03:03:22.150Z,4.40
2018-12-23T03:03:57.034Z,4.23
2018-12-23T03:04:32.018Z,4.33
2018-12-23T03:05:07.318Z,3.77
2018-12-23T03:05:41.932Z,3.97
2018-12-23T03:06:17.232Z,3.83
2018-12-23T03:06:52.059Z,3.73
2018-12-23T03:07:26.886Z,5.43
2018-12-23T03:08:01.582Z,4.27
2018-12-23T03:08:36.317Z,3.87
2018-12-23T03:09:10.956Z,3.77
2018-12-23T03:09:45.543Z,4.17
2018-12-23T03:10:20.150Z,4.57
2018-12-23T03:10:55.162Z,4.50
2018-12-23T03:11:30.183Z,4.33
2018-12-23T03:12:05.720Z,4.80
2018-12-23T03:12:40.394Z,4.20
2018-12-23T03:13:15.040Z,4.23
2018-12-23T03:13:49.635Z,3.87
2018-12-23T03:14:24.460Z,4.20
2018-12-23T03:14:59.552Z,3.93
2018-12-23T03:15:34.338Z,3.30
2018-12-23T03:16:09.433Z,4.00
2018-12-23T03:16:44.050Z,4.33
2018-12-23T03:17:18.666Z,4.43
2018-12-23T03:17:53.876Z,3.83
2018-12-23T03:18:28.572Z,4.37
2018-12-23T03:19:03.288Z,3.90
2018-12-23T03:19:37.910Z,3.90
2018-12-23T03:20:13.463Z,4.77
2018-12-23T03:20:48.096Z,4.23
2018-12-23T03:21:22.867Z,3.73
2018-12-23T03:21:57.864Z,3.67
2018-12-23T03:22:32.527Z,4.70
2018-12-23T03:23:07.159Z,3.63
2018-12-23T03:23:42.210Z,4.23
2018-12-23T03:24:17.258Z,3.73
2018-12-23T03:24:51.949Z,4.30
2018-12-23T03:25:26.697Z,4.43
2018-12-23T03:26:01.630Z,4.30
2018-12-23T03:26:36.230Z,4.33
2018-12-23T03:27:10.851Z,3.60
2018-12-23T03:27:45.456Z,3.83
2018-12-23T03:28:20.096Z,4.03
2018-12-23T03:28:55.019Z,4.87
2018-12-23T03:29:29.734Z,4.00
2018-12-23T03:30:05.483Z,4.93
2018-12-23T03:30:40.090Z,4.80
2018-12-23T03:31:14.763Z,4.00
2018-12-23T03:31:49.384Z,4.70
2018-12-23T03:32:24.479Z,4.47
2018-12-23T03:32:59.272Z,4.00
2018-12-23T03:33:33.914Z,4.17
2018-12-23T03:34:08.526Z,3.83
2018-12-23T03:34:43.253Z,4.73
2018-12-23T03:35:17.843Z,4.53
2018-12-23T03:35:52.500Z,4.00
2018-12-23T03:36:27.324Z,4.50
2018-12-23T03:37:02.013Z,4.13
2018-12-23T03:37:36.634Z,3.87
2018-12-23T03:38:11.384Z,4.97
2018-12-23T03:38:45.982Z,4.30
2018-12-23T03:39:20.722Z,4.23
2018-12-23T03:39:55.577Z,3.77
2018-12-23T03:40:31.534Z,3.90
2018-12-23T03:41:06.659Z,4.37
2018-12-23T03:41:41.313Z,4.53
2018-12-23T03:42:16.383Z,3.77
2018-12-23T03:42:51.065Z,4.30
2018-12-23T03:43:25.921Z,4.23
2018-12-23T03:44:00.621Z,4.33
2018-12-23T03:44:35.762Z,4.10
2018-12-23T03:45:10.402Z,3.97
2018-12-23T03:45:45.021Z,4.13
2018-12-23T03:46:19.616Z,4.70
2018-12-23T03:46:54.350Z,4.63
2018-12-23T03:47:29.127Z,3.70
2018-12-23T03:48:03.860Z,4.50
2018-12-23T03:48:38.622Z,4.90
2018-12-23T03:49:13.241Z,4.43
2018-12-23T03:49:47.853Z,4.77
2018-12-23T03:50:22.551Z,5.17
2018-12-23T03:50:57.496Z,4.63
2018-12-23T03:51:32.248Z,4.57
2018-12-23T03:52:06.872Z,4.33
2018-12-23T03:52:41.539Z,4.47
2018-12-23T03:53:16.521Z,3.80
2018-12-23T03:53:51.136Z,5.20
2018-12-23T03:54:26.040Z,5.17
2018-12-23T03:55:00.974Z,3.83
2018-12-23T03:55:35.671Z,4.23
2018-12-23T03:56:10.260Z,5.07
2018-12-23T03:56:44.852Z,4.30
2018-12-23T03:57:19.463Z,4.47
2018-12-23T03:57:54.399Z,4.50
2018-12-23T03:58:29.104Z,3.90
2018-12-23T03:59:03.787Z,5.00
2018-12-23T03:59:38.517Z,4.83
2018-12-23T04:00:13.158Z,4.83
2018-12-23T04:00:47.873Z,4.77
2018-12-23T04:01:22.664Z,4.20
2018-12-23T04:01:57.468Z,5.00
2018-12-23T04:02:32.463Z,4.83
2018-12-23T04:03:07.296Z,3.80
2018-12-23T04:03:41.889Z,4.97
2018-12-23T04:04:16.582Z,4.87
2018-12-23T04:04:51.227Z,4.23
2018-12-23T04:05:26.050Z,4.60
2018-12-23T04:06:01.113Z,3.93
2018-12-23T04:06:35.756Z,4.50
2018-12-23T04:07:10.471Z,4.30
2018-12-23T04:07:45.063Z,4.77
2018-12-23T04:08:19.687Z,4.57
2018-12-23T04:08:54.475Z,4.70
2018-12-23T04:09:29.268Z,4.87
2018-12-23T04:10:05.055Z,4.83
2018-12-23T04:10:39.704Z,3.70
2018-12-23T04:11:14.381Z,4.37
2018-12-23T04:11:49.052Z,4.43
2018-12-23T04:12:23.938Z,4.73
2018-12-23T04:12:59.111Z,4.30
2018-12-23T04:13:33.731Z,4.10
2018-12-23T04:14:08.317Z,4.10
2018-12-23T04:14:43.095Z,4.77
2018-12-23T04:15:17.731Z,3.93
2018-12-23T04:15:52.543Z,3.93
2018-12-23T04:16:27.236Z,4.20
2018-12-23T04:17:02.143Z,4.60
2018-12-23T04:17:36.729Z,4.33
2018-12-23T04:18:11.371Z,3.60
2018-12-23T04:18:46.011Z,3.80
2018-12-23T04:19:20.659Z,3.70
2018-12-23T04:19:55.663Z,3.63
2018-12-23T04:20:30.432Z,4.47
2018-12-23T04:21:05.213Z,3.50
2018-12-23T04:21:39.853Z,4.70
2018-12-23T04:22:14.545Z,3.83
2018-12-23T04:22:49.602Z,4.07
2018-12-23T04:23:24.910Z,4.20
2018-12-23T04:23:59.912Z,4.30
2018-12-23T04:24:34.670Z,3.57
2018-12-23T04:25:09.355Z,4.53
2018-12-23T04:25:44.184Z,4.13
2018-12-23T04:26:18.898Z,4.13
2018-12-23T04:26:53.701Z,4.03
2018-12-23T04:27:28.524Z,3.30
2018-12-23T04:28:03.251Z,3.97
2018-12-23T04:28:37.954Z,4.00
2018-12-23T04:29:12.641Z,3.83
2018-12-23T04:29:47.311Z,3.53
2018-12-23T04:30:22.079Z,4.40
2018-12-23T04:30:57.008Z,4.13
2018-12-23T04:31:31.760Z,4.20
2018-12-23T04:32:06.378Z,3.90
2018-12-23T04:32:41.112Z,3.60
2018-12-23T04:33:15.779Z,3.73
2018-12-23T04:33:50.594Z,3.70
2018-12-23T04:34:25.759Z,3.33
2018-12-23T04:35:00.673Z,3.70
2018-12-23T04:35:35.269Z,4.53
2018-12-23T04:36:09.998Z,3.83
2018-12-23T04:36:44.767Z,3.73
2018-12-23T04:37:19.395Z,3.87
2018-12-23T04:37:55.063Z,3.70
2018-12-23T04:38:29.816Z,3.43
2018-12-23T04:39:06.370Z,4.17
2018-12-23T04:39:41.044Z,3.87
2018-12-23T04:40:15.649Z,3.47
2018-12-23T04:40:50.781Z,3.47
2018-12-23T04:41:25.595Z,4.23
2018-12-23T04:42:00.292Z,3.33
2018-12-23T04:42:35.191Z,3.53
2018-12-23T04:43:09.793Z,3.20
2018-12-23T04:43:44.489Z,4.00
2018-12-23T04:44:19.113Z,4.33
2018-12-23T04:44:53.879Z,4.03
2018-12-23T04:45:28.566Z,3.50
2018-12-23T04:46:03.733Z,4.13
2018-12-23T04:46:38.441Z,3.90
2018-12-23T04:47:13.056Z,4.07
2018-12-23T04:47:47.680Z,3.80
2018-12-23T04:48:22.373Z,4.37
2018-12-23T04:48:57.098Z,4.20
2018-12-23T04:49:31.950Z,3.33
2018-12-23T04:50:07.902Z,3.60
2018-12-23T04:50:42.506Z,4.27
2018-12-23T04:51:17.130Z,3.80
2018-12-23T04:51:52.260Z,4.47
2018-12-23T04:52:27.021Z,3.90
2018-12-23T04:53:01.924Z,4.00
2018-12-23T04:53:36.525Z,3.83
2018-12-23T04:54:11.143Z,4.07
2018-12-23T04:54:45.939Z,4.07
2018-12-23T04:55:20.551Z,4.20
2018-12-23T04:55:55.314Z,4.07
2018-12-23T04:56:30.101Z,4.07
2018-12-23T04:57:04.702Z,4.17
2018-12-23T04:57:39.396Z,4.07
2018-12-23T04:58:13.999Z,3.73
2018-12-23T04:58:48.644Z,3.73
2018-12-23T04:59:23.361Z,4.17
2018-12-23T04:59:58.162Z,3.37
2018-12-23T05:00:32.791Z,4.20
2018-12-23T05:01:07.422Z,4.40
2018-12-23T05:01:42.041Z,3.70
2018-12-23T05:02:16.670Z,3.93
2018-12-23T05:02:51.407Z,4.13
2018-12-23T05:03:26.127Z,3.83
2018-12-23T05:04:00.831Z,4.00
2018-12-23T05:04:35.433Z,4.37
2018-12-23T05:05:10.025Z,3.90
2018-12-23T05:05:44.633Z,4.20
2018-12-23T05:06:19.282Z,4.80
2018-12-23T05:06:54.454Z,4.07
2018-12-23T05:07:29.317Z,4.00
2018-12-23T05:08:04.108Z,3.63
2018-12-23T05:08:38.724Z,3.83
2018-12-23T05:09:13.353Z,3.80
2018-12-23T05:09:48.242Z,3.77
2018-12-23T05:10:23.217Z,4.20
2018-12-23T05:10:57.931Z,4.50
2018-12-23T05:11:32.551Z,4.10
2018-12-23T05:12:07.284Z,4.17
2018-12-23T05:12:41.898Z,4.13
2018-12-23T05:13:16.523Z,3.90
2018-12-23T05:13:51.158Z,4.10
2018-12-23T05:14:25.931Z,4.03
2018-12-23T05:15:00.840Z,3.90
2018-12-23T05:15:35.740Z,4.50
2018-12-23T05:16:10.376Z,4.03
2018-12-23T05:16:44.979Z,4.20
2018-12-23T05:17:19.589Z,4.20
2018-12-23T05:17:54.368Z,4.37
2018-12-23T05:18:29.184Z,4.20
2018-12-23T05:19:03.998Z,4.47
2018-12-23T05:19:38.871Z,4.60
2018-12-23T05:20:13.490Z,4.10
2018-12-23T05:20:48.123Z,4.23
2018-12-23T05:21:23.239Z,4.00
2018-12-23T05:21:58.074Z,4.13
2018-12-23T05:22:32.931Z,3.63
2018-12-23T05:23:07.584Z,4.03
2018-12-23T05:23:42.236Z,4.23
2018-12-23T05:24:16.901Z,4.20
2018-12-23T05:24:51.558Z,3.80
2018-12-23T05:25:26.340Z,3.40
2018-12-23T05:26:01.169Z,3.70
2018-12-23T05:26:35.873Z,3.57
2018-12-23T05:27:10.512Z,4.40
2018-12-23T05:27:45.176Z,4.30
2018-12-23T05:28:20.856Z,3.40
2018-12-23T05:28:55.808Z,3.70
2018-12-23T05:29:30.504Z,3.60
2018-12-23T05:30:05.715Z,3.83
2018-12-23T05:31:21.261Z,3.27
2018-12-23T05:31:56.079Z,3.60
2018-12-23T05:32:31.174Z,3.47
2018-12-23T05:33:05.788Z,4.20
2018-12-23T05:33:40.427Z,3.80
2018-12-23T05:34:15.038Z,4.30
2018-12-23T05:34:49.665Z,3.30
2018-12-23T05:35:24.349Z,4.10
2018-12-23T05:35:59.503Z,4.00
2018-12-23T05:36:34.128Z,3.80
2018-12-23T05:37:08.840Z,3.93
2018-12-23T05:37:43.948Z,3.40
2018-12-23T05:38:18.625Z,3.77
2018-12-23T05:38:53.323Z,4.00
2018-12-23T05:39:27.959Z,3.83
2018-12-23T05:40:03.067Z,3.87
2018-12-23T05:40:37.652Z,3.90
2018-12-23T05:41:12.841Z,3.83
2018-12-23T05:41:47.430Z,4.00
2018-12-23T05:42:22.284Z,3.97
2018-12-23T05:42:57.132Z,3.70
2018-12-23T05:43:31.754Z,3.67
2018-12-23T05:44:06.388Z,3.70
2018-12-23T05:44:41.022Z,3.73
2018-12-23T05:45:15.646Z,3.37
2018-12-23T05:45:50.351Z,3.63
2018-12-23T05:46:25.064Z,4.43
2018-12-23T05:46:59.721Z,3.80
2018-12-23T05:47:34.433Z,4.07
2018-12-23T05:48:09.048Z,3.93
2018-12-23T05:48:43.730Z,4.20
2018-12-23T05:49:18.350Z,4.17
2018-12-23T05:49:52.982Z,3.90
2018-12-23T05:50:27.751Z,3.80
2018-12-23T05:51:02.430Z,3.63
2018-12-23T05:51:37.055Z,3.93
2018-12-23T05:52:11.648Z,3.63
2018-12-23T05:52:46.358Z,3.73
2018-12-23T05:53:20.954Z,4.20
2018-12-23T05:53:55.704Z,4.10
2018-12-23T05:54:30.516Z,4.23
2018-12-23T05:55:05.097Z,4.07
2018-12-23T05:55:38.666Z,4.40
2018-12-23T05:56:13.308Z,4.00
2018-12-23T05:56:47.923Z,3.80
2018-12-23T05:57:22.589Z,3.90
2018-12-23T05:57:57.300Z,3.97
2018-12-23T05:58:32.659Z,3.97
2018-12-23T05:59:07.258Z,3.73
2018-12-23T05:59:42.021Z,3.53
2018-12-23T06:00:16.648Z,4.50
2018-12-23T06:00:51.703Z,4.77
2018-12-23T06:01:26.348Z,4.00
2018-12-23T06:02:01.129Z,4.33
2018-12-23T06:02:35.913Z,3.40
2018-12-23T06:03:10.546Z,3.67
2018-12-23T06:03:45.242Z,3.90
2018-12-23T06:04:19.995Z,4.10
2018-12-23T06:04:54.707Z,3.40
2018-12-23T06:05:29.464Z,3.97
2018-12-23T06:06:04.078Z,3.87
2018-12-23T06:06:38.691Z,3.80
2018-12-23T06:07:13.485Z,3.67
2018-12-23T06:07:48.131Z,3.90
2018-12-23T06:08:23.041Z,3.67
2018-12-23T06:08:57.743Z,4.20
2018-12-23T06:09:32.471Z,3.40
2018-12-23T06:10:07.163Z,3.57
2018-12-23T06:10:42.144Z,4.07
2018-12-23T06:11:16.821Z,3.60
2018-12-23T06:11:51.664Z,3.50
2018-12-23T06:12:26.311Z,3.90
2018-12-23T06:13:01.180Z,4.00
2018-12-23T06:13:35.739Z,3.93
2018-12-23T06:14:10.354Z,3.37
2018-12-23T06:14:44.960Z,3.30
2018-12-23T06:15:19.602Z,3.17
2018-12-23T06:15:54.859Z,3.60
2018-12-23T06:16:29.509Z,4.10
2018-12-23T06:17:04.162Z,3.50
2018-12-23T06:17:38.848Z,3.60
2018-12-23T06:18:13.488Z,3.47
2018-12-23T06:18:48.093Z,3.93
2018-12-23T06:19:22.884Z,3.47
2018-12-23T06:19:57.818Z,3.93
2018-12-23T06:20:32.500Z,3.47
2018-12-23T06:21:07.068Z,3.93
2018-12-23T06:21:41.676Z,3.47
2018-12-23T06:22:16.310Z,4.17
2018-12-23T06:22:51.643Z,3.37
2018-12-23T06:23:26.376Z,3.70
2018-12-23T06:24:01.114Z,3.20
2018-12-23T06:24:35.779Z,3.70
2018-12-23T06:25:10.461Z,3.70
2018-12-23T06:25:45.089Z,3.73
2018-12-23T06:26:20.066Z,3.53
2018-12-23T06:26:54.712Z,3.30
2018-12-23T06:27:29.398Z,3.60
2018-12-23T06:28:04.119Z,3.60
2018-12-23T06:28:38.742Z,3.17
2018-12-23T06:29:13.361Z,4.17
2018-12-23T06:29:48.062Z,3.47
2018-12-23T06:30:22.824Z,4.03
2018-12-23T06:30:57.869Z,3.43
2018-12-23T06:31:32.589Z,3.30
2018-12-23T06:32:07.283Z,3.90
2018-12-23T06:32:42.040Z,3.50
2018-12-23T06:33:17.165Z,3.13
2018-12-23T06:33:51.860Z,3.60
2018-12-23T06:34:26.649Z,3.67
2018-12-23T06:35:01.416Z,3.67
2018-12-23T06:35:36.043Z,3.23
2018-12-23T06:36:10.716Z,4.00
2018-12-23T06:36:45.343Z,4.07
2018-12-23T06:37:19.958Z,3.50
2018-12-23T06:37:54.786Z,3.70
2018-12-23T06:38:29.497Z,3.20
2018-12-23T06:39:06.480Z,3.60
2018-12-23T06:39:41.166Z,3.20
2018-12-23T06:40:15.776Z,3.23
2018-12-23T06:40:50.458Z,3.33
2018-12-23T06:41:25.158Z,3.83
2018-12-23T06:42:00.035Z,3.83
2018-12-23T06:42:35.032Z,4.10
2018-12-23T06:43:09.653Z,4.17
2018-12-23T06:43:44.347Z,3.70
2018-12-23T06:44:18.930Z,3.67
2018-12-23T06:44:53.854Z,4.17
2018-12-23T06:45:28.549Z,3.27
2018-12-23T06:46:03.402Z,3.60
2018-12-23T06:46:38.046Z,3.40
2018-12-23T06:47:12.703Z,4.23
2018-12-23T06:47:47.409Z,3.87
2018-12-23T06:48:22.217Z,4.00
2018-12-23T06:48:57.073Z,3.13
2018-12-23T06:49:31.865Z,3.30
2018-12-23T06:50:06.678Z,3.07
2018-12-23T06:50:41.314Z,3.13
2018-12-23T06:51:15.965Z,3.37
2018-12-23T06:51:50.630Z,3.13
2018-12-23T06:52:25.397Z,4.07
2018-12-23T06:53:00.110Z,3.53
2018-12-23T06:53:34.802Z,3.40
2018-12-23T06:54:09.692Z,4.27
2018-12-23T06:54:44.287Z,3.50
2018-12-23T06:55:18.934Z,3.80
2018-12-23T06:55:53.816Z,3.23
2018-12-23T06:56:28.635Z,3.77
2018-12-23T06:57:03.260Z,3.07
2018-12-23T06:57:37.881Z,3.70
2018-12-23T06:58:12.627Z,3.10
2018-12-23T06:58:47.231Z,3.63
2018-12-23T06:59:21.911Z,3.30
2018-12-23T06:59:56.653Z,3.53
2018-12-23T07:00:31.250Z,3.57
2018-12-23T07:01:05.875Z,3.97
2018-12-23T07:01:40.659Z,3.60
2018-12-23T07:02:15.330Z,3.23
2018-12-23T07:02:49.954Z,3.00
2018-12-23T07:03:24.612Z,3.73
2018-12-23T07:03:59.675Z,3.77
2018-12-23T07:04:34.406Z,3.47
2018-12-23T07:05:09.326Z,3.60
2018-12-23T07:05:43.915Z,4.00
2018-12-23T07:06:18.828Z,3.57
2018-12-23T07:06:53.581Z,3.57
2018-12-23T07:07:28.327Z,3.70
2018-12-23T07:08:03.062Z,3.73
2018-12-23T07:08:37.714Z,3.60
2018-12-23T07:09:12.350Z,3.57
2018-12-23T07:09:46.961Z,3.50
2018-12-23T07:10:21.693Z,4.40
2018-12-23T07:10:56.876Z,4.03
2018-12-23T07:11:31.737Z,4.33
2018-12-23T07:12:06.346Z,3.37
2018-12-23T07:12:40.946Z,3.37
2018-12-23T07:13:15.599Z,4.60
2018-12-23T07:13:50.260Z,3.80
2018-12-23T07:14:25.326Z,3.80
2018-12-23T07:15:00.082Z,4.10
2018-12-23T07:15:35.011Z,3.50
2018-12-23T07:16:09.631Z,4.40
2018-12-23T07:16:44.363Z,4.40
2018-12-23T07:17:18.998Z,3.80
2018-12-23T07:17:53.870Z,3.67
2018-12-23T07:18:28.733Z,3.70
2018-12-23T07:19:03.892Z,4.10
2018-12-23T07:19:38.474Z,3.93
2018-12-23T07:20:13.372Z,3.90
2018-12-23T07:20:48.034Z,4.20
2018-12-23T07:21:23.294Z,3.40
2018-12-23T07:21:58.132Z,4.27
2018-12-23T07:22:32.789Z,4.20
2018-12-23T07:23:07.524Z,4.23
2018-12-23T07:23:42.266Z,3.77
2018-12-23T07:24:17.060Z,3.73
2018-12-23T07:24:51.891Z,3.87
2018-12-23T07:25:26.698Z,4.20
2018-12-23T07:26:01.374Z,4.57
2018-12-23T07:26:36.010Z,3.77
2018-12-23T07:27:10.678Z,4.83
2018-12-23T07:27:45.290Z,4.50
2018-12-23T07:28:19.901Z,4.17
2018-12-23T07:28:55.279Z,4.80
2018-12-23T07:29:31.042Z,4.57
2018-12-23T07:30:05.909Z,4.17
2018-12-23T07:30:40.566Z,4.23
2018-12-23T07:31:15.388Z,4.17
2018-12-23T07:31:50.476Z,4.13
2018-12-23T07:32:25.298Z,4.30
2018-12-23T07:33:00.008Z,4.33
2018-12-23T07:33:35.281Z,4.53
2018-12-23T07:34:09.974Z,4.73
2018-12-23T07:34:44.661Z,4.60
2018-12-23T07:35:19.575Z,5.13
2018-12-23T07:35:54.300Z,5.20
2018-12-23T07:36:28.986Z,4.50
2018-12-23T07:37:04.295Z,4.27
2018-12-23T07:37:38.915Z,4.70
2018-12-23T07:38:13.556Z,4.23
2018-12-23T07:38:48.196Z,4.63
2018-12-23T07:39:23.064Z,4.80
2018-12-23T07:39:58.107Z,5.07
2018-12-23T07:40:32.696Z,4.70
2018-12-23T07:41:07.414Z,4.50
2018-12-23T07:41:42.028Z,4.70
2018-12-23T07:42:16.636Z,4.83
2018-12-23T07:42:51.422Z,5.23
2018-12-23T07:43:26.164Z,4.67